Terminal Aerodrome Forecast
Issued by NWS Goodland, KS

Home | Current Version | Previous Version | Text Only | Print | Product List | Glossary On
Versions: 1 2 3 4 5 6 7 8 9 10 11 12 13 14 15 16 17 18 19 20 21 22 23 24 25 26 27
000
FTUS43 KGLD 161205 AAA
TAFGLD
TAF AMD
KGLD 161205Z 1612/1712 34011KT 6SM BR SCT007 BKN015
      TEMPO 1612/1615 3SM -DZ BR OVC003
     FM161500 01010G16KT P6SM VCTS SCT025 SCT050CB
     FM161800 04011G18KT P6SM VCTS SCT015 BKN050CB
     FM162200 12012G22KT P6SM VCTS SCT010 BKN050CB
     FM170200 12010KT 3SM BR VCSH SCT002 OVC006=

USA.gov is the U.S. government's official web portal to all federal, state and local government web resources and services.